sensor_id;sensor_type;location;lat;lon;timestamp;pressure;altitude;pressure_sealevel;temperature;humidity
54628;BME280;40525;55.926;21.066;2023-03-19T00:00:38;101577.04;;;7.54;53.23
54628;BME280;40525;55.926;21.066;2023-03-19T00:03:05;101575.45;;;7.55;52.98
54628;BME280;40525;55.926;21.066;2023-03-19T00:05:32;101574.23;;;7.55;53.27
54628;BME280;40525;55.926;21.066;2023-03-19T00:07:59;101573.31;;;7.56;53.40
54628;BME280;40525;55.926;21.066;2023-03-19T00:10:26;101575.23;;;7.56;53.30
54628;BME280;40525;55.926;21.066;2023-03-19T00:12:53;101575.75;;;7.57;53.31
54628;BME280;40525;55.926;21.066;2023-03-19T00:15:20;101570.01;;;7.56;53.30
54628;BME280;40525;55.926;21.066;2023-03-19T00:17:47;101567.92;;;7.55;53.38
54628;BME280;40525;55.926;21.066;2023-03-19T00:20:14;101568.46;;;7.54;53.32
54628;BME280;40525;55.926;21.066;2023-03-19T00:22:41;101561.50;;;7.52;53.54
54628;BME280;40525;55.926;21.066;2023-03-19T00:25:09;101558.71;;;7.51;53.60
54628;BME280;40525;55.926;21.066;2023-03-19T00:27:36;101560.83;;;7.51;53.77
54628;BME280;40525;55.926;21.066;2023-03-19T00:30:05;101560.33;;;7.49;53.77
54628;BME280;40525;55.926;21.066;2023-03-19T00:32:33;101562.09;;;7.49;53.79
54628;BME280;40525;55.926;21.066;2023-03-19T00:35:04;101567.34;;;7.49;53.90
54628;BME280;40525;55.926;21.066;2023-03-19T00:37:35;101575.71;;;7.50;53.87
54628;BME280;40525;55.926;21.066;2023-03-19T00:40:03;101569.80;;;7.48;53.90
54628;BME280;40525;55.926;21.066;2023-03-19T00:42:32;101568.04;;;7.49;54.08
54628;BME280;40525;55.926;21.066;2023-03-19T00:44:59;101565.73;;;7.50;54.08
54628;BME280;40525;55.926;21.066;2023-03-19T00:47:26;101568.00;;;7.51;54.20
54628;BME280;40525;55.926;21.066;2023-03-19T00:49:55;101564.85;;;7.52;54.21
54628;BME280;40525;55.926;21.066;2023-03-19T00:52:22;101563.44;;;7.52;54.12
54628;BME280;40525;55.926;21.066;2023-03-19T00:54:49;101561.84;;;7.53;54.02
54628;BME280;40525;55.926;21.066;2023-03-19T00:57:17;101559.90;;;7.53;54.04
54628;BME280;40525;55.926;21.066;2023-03-19T00:59:44;101560.45;;;7.53;54.03
54628;BME280;40525;55.926;21.066;2023-03-19T01:02:11;101561.83;;;7.53;54.09
54628;BME280;40525;55.926;21.066;2023-03-19T01:04:40;101563.04;;;7.54;54.07
54628;BME280;40525;55.926;21.066;2023-03-19T01:07:09;101560.06;;;7.54;53.99
54628;BME280;40525;55.926;21.066;2023-03-19T01:09:37;101561.81;;;7.54;53.89
54628;BME280;40525;55.926;21.066;2023-03-19T01:12:06;101563.90;;;7.54;53.86
54628;BME280;40525;55.926;21.066;2023-03-19T01:14:34;101561.81;;;7.54;53.89
54628;BME280;40525;55.926;21.066;2023-03-19T01:17:02;101556.23;;;7.53;53.77
54628;BME280;40525;55.926;21.066;2023-03-19T01:19:30;101561.45;;;7.55;53.87
54628;BME280;40525;55.926;21.066;2023-03-19T01:21:58;101561.80;;;7.54;53.67
54628;BME280;40525;55.926;21.066;2023-03-19T01:24:29;101559.34;;;7.55;53.87
54628;BME280;40525;55.926;21.066;2023-03-19T01:26:57;101562.83;;;7.56;53.67
54628;BME280;40525;55.926;21.066;2023-03-19T01:29:32;101566.15;;;7.56;53.86
54628;BME280;40525;55.926;21.066;2023-03-19T01:32:07;101564.94;;;7.56;53.78
54628;BME280;40525;55.926;21.066;2023-03-19T01:35:01;101563.55;;;7.55;53.92
54628;BME280;40525;55.926;21.066;2023-03-19T01:37:29;101568.77;;;7.56;54.16
54628;BME280;40525;55.926;21.066;2023-03-19T01:39:56;101571.02;;;7.58;54.20
54628;BME280;40525;55.926;21.066;2023-03-19T01:42:24;101567.88;;;7.57;54.12
54628;BME280;40525;55.926;21.066;2023-03-19T01:45:47;101567.52;;;7.57;54.14
54628;BME280;40525;55.926;21.066;2023-03-19T01:48:57;101564.91;;;7.57;53.98
54628;BME280;40525;55.926;21.066;2023-03-19T01:51:29;101569.95;;;7.59;54.31
54628;BME280;40525;55.926;21.066;2023-03-19T01:54:20;101568.20;;;7.59;54.16
54628;BME280;40525;55.926;21.066;2023-03-19T01:57:10;101568.70;;;7.60;54.38
54628;BME280;40525;55.926;21.066;2023-03-19T02:00:00;101571.29;;;7.61;54.54
54628;BME280;40525;55.926;21.066;2023-03-19T02:02:46;101567.77;;;7.62;54.58
54628;BME280;40525;55.926;21.066;2023-03-19T02:05:38;101569.02;;;7.62;54.46
54628;BME280;40525;55.926;21.066;2023-03-19T02:08:11;101569.17;;;7.62;54.71
54628;BME280;40525;55.926;21.066;2023-03-19T02:10:41;101570.73;;;7.63;54.57
54628;BME280;40525;55.926;21.066;2023-03-19T02:13:09;101570.05;;;7.62;54.51
54628;BME280;40525;55.926;21.066;2023-03-19T02:15:36;101574.25;;;7.63;54.60
54628;BME280;40525;55.926;21.066;2023-03-19T02:18:04;101573.55;;;7.62;54.89
54628;BME280;40525;55.926;21.066;2023-03-19T02:20:50;101576.17;;;7.62;54.93
54628;BME280;40525;55.926;21.066;2023-03-19T02:23:42;101581.92;;;7.64;55.07
54628;BME280;40525;55.926;21.066;2023-03-19T02:26:15;101580.73;;;7.62;54.87
54628;BME280;40525;55.926;21.066;2023-03-19T02:28:46;101583.03;;;7.61;54.90
54628;BME280;40525;55.926;21.066;2023-03-19T02:31:19;101581.13;;;7.60;54.97
54628;BME280;40525;55.926;21.066;2023-03-19T02:37:19;101577.30;;;7.60;55.00
54628;BME280;40525;55.926;21.066;2023-03-19T02:39:57;101570.81;;;7.59;55.31
54628;BME280;40525;55.926;21.066;2023-03-19T02:42:27;101571.16;;;7.60;55.34
54628;BME280;40525;55.926;21.066;2023-03-19T02:44:56;101572.92;;;7.58;55.55
54628;BME280;40525;55.926;21.066;2023-03-19T02:47:26;101570.31;;;7.58;55.86
54628;BME280;40525;55.926;21.066;2023-03-19T02:49:54;101571.77;;;7.55;56.07
54628;BME280;40525;55.926;21.066;2023-03-19T02:52:22;101578.65;;;7.52;56.39
54628;BME280;40525;55.926;21.066;2023-03-19T02:54:49;101579.92;;;7.49;56.65
54628;BME280;40525;55.926;21.066;2023-03-19T02:57:16;101581.22;;;7.46;56.91
54628;BME280;40525;55.926;21.066;2023-03-19T02:59:44;101582.34;;;7.42;57.59
54628;BME280;40525;55.926;21.066;2023-03-19T03:02:11;101581.55;;;7.37;57.71
54628;BME280;40525;55.926;21.066;2023-03-19T03:04:39;101583.20;;;7.33;58.15
54628;BME280;40525;55.926;21.066;2023-03-19T03:07:06;101588.70;;;7.29;58.40
54628;BME280;40525;55.926;21.066;2023-03-19T03:09:34;101589.83;;;7.25;58.58
54628;BME280;40525;55.926;21.066;2023-03-19T03:12:01;101595.48;;;7.20;58.69
54628;BME280;40525;55.926;21.066;2023-03-19T03:14:28;101596.25;;;7.17;58.70
54628;BME280;40525;55.926;21.066;2023-03-19T03:16:56;101599.60;;;7.15;58.79
54628;BME280;40525;55.926;21.066;2023-03-19T03:19:24;101599.30;;;7.12;59.29
54628;BME280;40525;55.926;21.066;2023-03-19T03:21:51;101602.16;;;7.09;59.43
54628;BME280;40525;55.926;21.066;2023-03-19T03:24:18;101606.41;;;7.06;59.50
54628;BME280;40525;55.926;21.066;2023-03-19T03:26:46;101610.11;;;7.03;59.57
54628;BME280;40525;55.926;21.066;2023-03-19T03:29:13;101613.30;;;7.01;59.65
54628;BME280;40525;55.926;21.066;2023-03-19T03:31:41;101614.73;;;7.00;59.60
54628;BME280;40525;55.926;21.066;2023-03-19T03:34:08;101614.17;;;7.01;59.56
54628;BME280;40525;55.926;21.066;2023-03-19T03:36:35;101619.05;;;7.02;59.69
54628;BME280;40525;55.926;21.066;2023-03-19T03:39:03;101619.59;;;7.02;59.74
54628;BME280;40525;55.926;21.066;2023-03-19T03:41:30;101619.84;;;6.97;60.21
54628;BME280;40525;55.926;21.066;2023-03-19T03:43:59;101622.82;;;6.96;59.93
54628;BME280;40525;55.926;21.066;2023-03-19T03:46:27;101620.39;;;6.95;59.98
54628;BME280;40525;55.926;21.066;2023-03-19T03:48:55;101625.48;;;6.93;60.11
54628;BME280;40525;55.926;21.066;2023-03-19T03:51:22;101621.69;;;6.90;60.12
54628;BME280;40525;55.926;21.066;2023-03-19T03:53:49;101621.41;;;6.86;60.29
54628;BME280;40525;55.926;21.066;2023-03-19T03:56:17;101621.46;;;6.82;60.35
54628;BME280;40525;55.926;21.066;2023-03-19T03:58:44;101622.90;;;6.80;60.46
54628;BME280;40525;55.926;21.066;2023-03-19T04:01:16;101623.10;;;6.78;60.67
54628;BME280;40525;55.926;21.066;2023-03-19T04:03:44;101623.83;;;6.76;60.84
54628;BME280;40525;55.926;21.066;2023-03-19T04:06:15;101616.91;;;6.72;60.97
54628;BME280;40525;55.926;21.066;2023-03-19T04:08:51;101613.12;;;6.69;61.22
54628;BME280;40525;55.926;21.066;2023-03-19T04:11:19;101610.33;;;6.69;61.12
54628;BME280;40525;55.926;21.066;2023-03-19T04:13:46;101606.48;;;6.68;60.98
54628;BME280;40525;55.926;21.066;2023-03-19T04:16:13;101606.16;;;6.67;60.99
54628;BME280;40525;55.926;21.066;2023-03-19T04:18:41;101612.98;;;6.66;61.12
54628;BME280;40525;55.926;21.066;2023-03-19T04:21:08;101613.15;;;6.66;61.10
54628;BME280;40525;55.926;21.066;2023-03-19T04:23:35;101616.13;;;6.66;61.24
54628;BME280;40525;55.926;21.066;2023-03-19T04:26:04;101612.51;;;6.63;61.39
54628;BME280;40525;55.926;21.066;2023-03-19T04:28:33;101613.05;;;6.60;61.45
54628;BME280;40525;55.926;21.066;2023-03-19T04:31:02;101617.98;;;6.58;61.57
54628;BME280;40525;55.926;21.066;2023-03-19T04:33:32;101619.41;;;6.56;61.54
54628;BME280;40525;55.926;21.066;2023-03-19T04:36:00;101619.94;;;6.56;61.36
54628;BME280;40525;55.926;21.066;2023-03-19T04:38:27;101621.34;;;6.55;61.38
54628;BME280;40525;55.926;21.066;2023-03-19T04:40:55;101624.86;;;6.53;61.59
54628;BME280;40525;55.926;21.066;2023-03-19T04:43:23;101627.70;;;6.52;61.65
54628;BME280;40525;55.926;21.066;2023-03-19T04:45:51;101622.83;;;6.49;61.79
54628;BME280;40525;55.926;21.066;2023-03-19T04:48:19;101622.52;;;6.47;61.69
54628;BME280;40525;55.926;21.066;2023-03-19T04:50:49;101618.17;;;6.45;61.87
54628;BME280;40525;55.926;21.066;2023-03-19T04:53:19;101617.69;;;6.43;61.89
54628;BME280;40525;55.926;21.066;2023-03-19T04:55:47;101618.21;;;6.42;61.99
54628;BME280;40525;55.926;21.066;2023-03-19T04:58:16;101618.23;;;6.40;62.03
54628;BME280;40525;55.926;21.066;2023-03-19T05:00:47;101607.77;;;6.38;62.35
54628;BME280;40525;55.926;21.066;2023-03-19T05:03:17;101593.69;;;6.34;62.63
54628;BME280;40525;55.926;21.066;2023-03-19T05:05:46;101582.57;;;6.30;62.90
54628;BME280;40525;55.926;21.066;2023-03-19T05:08:14;101575.64;;;6.26;62.88
54628;BME280;40525;55.926;21.066;2023-03-19T05:10:41;101567.83;;;6.23;63.05
54628;BME280;40525;55.926;21.066;2023-03-19T05:13:08;101571.69;;;6.22;63.01
54628;BME280;40525;55.926;21.066;2023-03-19T05:15:43;101586.73;;;6.20;63.14
54628;BME280;40525;55.926;21.066;2023-03-19T05:18:12;101590.77;;;6.18;63.38
54628;BME280;40525;55.926;21.066;2023-03-19T05:20:42;101592.90;;;6.15;63.38
54628;BME280;40525;55.926;21.066;2023-03-19T05:23:21;101601.66;;;6.13;63.34
54628;BME280;40525;55.926;21.066;2023-03-19T05:26:08;101597.30;;;6.13;63.64
54628;BME280;40525;55.926;21.066;2023-03-19T05:29:02;101597.28;;;6.15;63.47
54628;BME280;40525;55.926;21.066;2023-03-19T05:31:37;101592.56;;;6.15;63.87
54628;BME280;40525;55.926;21.066;2023-03-19T05:34:04;101591.15;;;6.16;63.73
54628;BME280;40525;55.926;21.066;2023-03-19T05:36:32;101596.20;;;6.16;63.73
54628;BME280;40525;55.926;21.066;2023-03-19T05:39:07;101608.60;;;6.16;63.76
54628;BME280;40525;55.926;21.066;2023-03-19T05:41:35;101617.67;;;6.17;63.66
54628;BME280;40525;55.926;21.066;2023-03-19T05:44:05;101613.98;;;6.18;63.76
54628;BME280;40525;55.926;21.066;2023-03-19T05:46:52;101615.73;;;6.19;63.92
54628;BME280;40525;55.926;21.066;2023-03-19T05:49:20;101623.38;;;6.21;63.98
54628;BME280;40525;55.926;21.066;2023-03-19T05:51:48;101619.88;;;6.22;64.44
54628;BME280;40525;55.926;21.066;2023-03-19T05:54:15;101617.95;;;6.22;64.55
54628;BME280;40525;55.926;21.066;2023-03-19T05:57:04;101611.53;;;6.19;64.80
54628;BME280;40525;55.926;21.066;2023-03-19T05:59:32;101601.60;;;6.18;64.90
54628;BME280;40525;55.926;21.066;2023-03-19T06:02:17;101607.39;;;6.16;64.98
54628;BME280;40525;55.926;21.066;2023-03-19T06:04:45;101610.35;;;6.16;65.23
54628;BME280;40525;55.926;21.066;2023-03-19T06:07:14;101612.44;;;6.17;65.34
54628;BME280;40525;55.926;21.066;2023-03-19T06:09:41;101604.23;;;6.17;65.54
54628;BME280;40525;55.926;21.066;2023-03-19T06:12:10;101602.82;;;6.18;65.23
54628;BME280;40525;55.926;21.066;2023-03-19T06:14:39;101602.09;;;6.20;65.28
54628;BME280;40525;55.926;21.066;2023-03-19T06:17:29;101600.50;;;6.21;65.34
54628;BME280;40525;55.926;21.066;2023-03-19T06:20:00;101597.34;;;6.23;65.39
54628;BME280;40525;55.926;21.066;2023-03-19T06:22:27;101598.33;;;6.28;65.18
54628;BME280;40525;55.926;21.066;2023-03-19T06:24:55;101597.35;;;6.35;65.38
54628;BME280;40525;55.926;21.066;2023-03-19T06:27:22;101597.45;;;6.40;65.42
54628;BME280;40525;55.926;21.066;2023-03-19T06:29:50;101599.09;;;6.47;65.56
54628;BME280;40525;55.926;21.066;2023-03-19T06:32:22;101595.02;;;6.52;65.41
54628;BME280;40525;55.926;21.066;2023-03-19T06:34:52;101595.66;;;6.55;65.23
54628;BME280;40525;55.926;21.066;2023-03-19T06:37:21;101607.80;;;6.61;65.13
54628;BME280;40525;55.926;21.066;2023-03-19T06:39:48;101627.88;;;6.63;64.73
54628;BME280;40525;55.926;21.066;2023-03-19T06:42:16;101636.09;;;6.63;64.77
54628;BME280;40525;55.926;21.066;2023-03-19T06:44:43;101629.75;;;6.66;64.89
54628;BME280;40525;55.926;21.066;2023-03-19T06:47:10;101638.05;;;6.72;64.79
54628;BME280;40525;55.926;21.066;2023-03-19T06:49:39;101635.52;;;6.78;64.80
54628;BME280;40525;55.926;21.066;2023-03-19T06:52:06;101635.23;;;6.86;64.65
54628;BME280;40525;55.926;21.066;2023-03-19T06:54:34;101634.75;;;6.94;64.56
54628;BME280;40525;55.926;21.066;2023-03-19T06:57:04;101641.08;;;7.02;64.36
54628;BME280;40525;55.926;21.066;2023-03-19T06:59:32;101639.58;;;7.09;63.53
54628;BME280;40525;55.926;21.066;2023-03-19T07:01:59;101637.18;;;7.16;63.00
54628;BME280;40525;55.926;21.066;2023-03-19T07:04:25;101640.23;;;7.22;62.21
54628;BME280;40525;55.926;21.066;2023-03-19T07:06:54;101639.60;;;7.29;61.58
54628;BME280;40525;55.926;21.066;2023-03-19T07:09:21;101640.73;;;7.35;61.24
54628;BME280;40525;55.926;21.066;2023-03-19T07:11:49;101636.95;;;7.39;60.59
54628;BME280;40525;55.926;21.066;2023-03-19T07:14:16;101633.38;;;7.45;60.27
54628;BME280;40525;55.926;21.066;2023-03-19T07:16:42;101635.17;;;7.52;60.10
54628;BME280;40525;55.926;21.066;2023-03-19T07:19:10;101635.95;;;7.57;59.86
54628;BME280;40525;55.926;21.066;2023-03-19T07:21:37;101634.30;;;7.61;59.41
54628;BME280;40525;55.926;21.066;2023-03-19T07:24:04;101638.07;;;7.65;59.82
54628;BME280;40525;55.926;21.066;2023-03-19T07:26:31;101641.50;;;7.69;59.52
54628;BME280;40525;55.926;21.066;2023-03-19T07:28:58;101644.21;;;7.74;59.70
54628;BME280;40525;55.926;21.066;2023-03-19T07:31:26;101644.48;;;7.78;59.10
54628;BME280;40525;55.926;21.066;2023-03-19T07:33:53;101647.36;;;7.84;59.62
54628;BME280;40525;55.926;21.066;2023-03-19T07:36:20;101654.43;;;7.89;59.06
54628;BME280;40525;55.926;21.066;2023-03-19T07:38:47;101655.27;;;7.91;58.67
54628;BME280;40525;55.926;21.066;2023-03-19T07:41:14;101654.55;;;7.91;58.41
54628;BME280;40525;55.926;21.066;2023-03-19T07:43:41;101653.36;;;7.90;58.08
54628;BME280;40525;55.926;21.066;2023-03-19T07:46:08;101652.12;;;7.91;57.76
54628;BME280;40525;55.926;21.066;2023-03-19T07:48:35;101656.27;;;7.94;58.16
54628;BME280;40525;55.926;21.066;2023-03-19T07:51:02;101657.36;;;8.00;58.09
54628;BME280;40525;55.926;21.066;2023-03-19T07:53:29;101661.04;;;8.09;57.90
54628;BME280;40525;55.926;21.066;2023-03-19T07:55:56;101666.23;;;8.20;57.96
54628;BME280;40525;55.926;21.066;2023-03-19T07:58:24;101670.03;;;8.32;57.69
54628;BME280;40525;55.926;21.066;2023-03-19T08:00:52;101671.21;;;8.42;57.04
54628;BME280;40525;55.926;21.066;2023-03-19T08:03:20;101668.55;;;8.53;57.43
54628;BME280;40525;55.926;21.066;2023-03-19T08:05:48;101660.92;;;8.65;56.80
54628;BME280;40525;55.926;21.066;2023-03-19T08:08:16;101666.25;;;8.78;56.65
54628;BME280;40525;55.926;21.066;2023-03-19T08:10:44;101664.98;;;8.87;56.02
54628;BME280;40525;55.926;21.066;2023-03-19T08:13:11;101664.93;;;8.97;56.28
54628;BME280;40525;55.926;21.066;2023-03-19T08:15:39;101662.04;;;9.08;55.85
54628;BME280;40525;55.926;21.066;2023-03-19T08:18:06;101661.11;;;9.24;55.81
54628;BME280;40525;55.926;21.066;2023-03-19T08:20:33;101664.16;;;9.43;55.45
54628;BME280;40525;55.926;21.066;2023-03-19T08:23:01;101667.54;;;9.55;55.11
54628;BME280;40525;55.926;21.066;2023-03-19T08:25:28;101671.20;;;9.63;54.97
54628;BME280;40525;55.926;21.066;2023-03-19T08:27:59;101677.16;;;9.69;54.81
54628;BME280;40525;55.926;21.066;2023-03-19T08:30:27;101679.77;;;9.76;54.88
54628;BME280;40525;55.926;21.066;2023-03-19T08:32:54;101683.58;;;9.73;53.18
54628;BME280;40525;55.926;21.066;2023-03-19T08:35:22;101686.11;;;9.63;53.35
54628;BME280;40525;55.926;21.066;2023-03-19T08:37:48;101695.52;;;9.52;52.67
54628;BME280;40525;55.926;21.066;2023-03-19T08:40:16;101696.36;;;9.40;52.87
54628;BME280;40525;55.926;21.066;2023-03-19T08:42:43;101695.02;;;9.36;53.64
54628;BME280;40525;55.926;21.066;2023-03-19T08:45:12;101695.16;;;9.39;53.50
54628;BME280;40525;55.926;21.066;2023-03-19T08:47:41;101694.77;;;9.33;53.43
54628;BME280;40525;55.926;21.066;2023-03-19T08:50:09;101701.27;;;9.25;53.26
54628;BME280;40525;55.926;21.066;2023-03-19T08:52:37;101712.61;;;9.21;53.43
54628;BME280;40525;55.926;21.066;2023-03-19T08:55:06;101716.30;;;9.13;53.12
54628;BME280;40525;55.926;21.066;2023-03-19T08:57:34;101719.50;;;9.04;53.19
54628;BME280;40525;55.926;21.066;2023-03-19T09:00:03;101720.60;;;8.94;53.56
54628;BME280;40525;55.926;21.066;2023-03-19T09:02:31;101720.75;;;8.87;53.69
54628;BME280;40525;55.926;21.066;2023-03-19T09:04:58;101720.55;;;8.81;53.87
54628;BME280;40525;55.926;21.066;2023-03-19T09:07:25;101715.67;;;8.79;54.16
54628;BME280;40525;55.926;21.066;2023-03-19T09:09:52;101709.32;;;8.81;54.24
54628;BME280;40525;55.926;21.066;2023-03-19T09:12:19;101708.66;;;8.79;54.21
54628;BME280;40525;55.926;21.066;2023-03-19T09:14:46;101706.08;;;8.77;54.04
54628;BME280;40525;55.926;21.066;2023-03-19T09:17:13;101706.15;;;8.74;54.11
54628;BME280;40525;55.926;21.066;2023-03-19T09:19:41;101709.49;;;8.73;54.43
54628;BME280;40525;55.926;21.066;2023-03-19T09:22:08;101705.48;;;8.72;54.54
54628;BME280;40525;55.926;21.066;2023-03-19T09:24:35;101704.16;;;8.76;54.69
54628;BME280;40525;55.926;21.066;2023-03-19T09:27:05;101710.30;;;8.84;54.84
54628;BME280;40525;55.926;21.066;2023-03-19T09:29:32;101711.73;;;8.91;54.56
54628;BME280;40525;55.926;21.066;2023-03-19T09:31:59;101712.86;;;8.95;54.62
54628;BME280;40525;55.926;21.066;2023-03-19T09:34:27;101715.10;;;8.97;54.33
54628;BME280;40525;55.926;21.066;2023-03-19T09:36:54;101712.66;;;9.03;54.61
54628;BME280;40525;55.926;21.066;2023-03-19T09:39:20;101714.31;;;9.08;54.14
54628;BME280;40525;55.926;21.066;2023-03-19T09:44:34;101713.33;;;9.20;54.49
54628;BME280;40525;55.926;21.066;2023-03-19T09:49:41;101719.38;;;9.24;53.75
54628;BME280;40525;55.926;21.066;2023-03-19T09:52:22;101717.47;;;9.30;53.77
54628;BME280;40525;55.926;21.066;2023-03-19T09:54:52;101715.48;;;9.33;53.62
54628;BME280;40525;55.926;21.066;2023-03-19T09:57:21;101717.02;;;9.35;53.56
54628;BME280;40525;55.926;21.066;2023-03-19T09:59:48;101718.50;;;9.38;53.44
54628;BME280;40525;55.926;21.066;2023-03-19T10:08:37;101721.52;;;9.58;53.33
54628;BME280;40525;55.926;21.066;2023-03-19T10:16:28;101714.33;;;9.72;53.09
54628;BME280;40525;55.926;21.066;2023-03-19T10:19:02;101711.42;;;9.96;53.02
54628;BME280;40525;55.926;21.066;2023-03-19T10:21:45;101708.63;;;10.20;52.58
54628;BME280;40525;55.926;21.066;2023-03-19T10:24:24;101708.66;;;10.32;51.32
54628;BME280;40525;55.926;21.066;2023-03-19T10:26:58;101707.45;;;10.44;51.80
54628;BME280;40525;55.926;21.066;2023-03-19T10:29:26;101704.81;;;10.56;51.01
54628;BME280;40525;55.926;21.066;2023-03-19T10:32:01;101705.33;;;10.63;50.63
54628;BME280;40525;55.926;21.066;2023-03-19T10:34:35;101706.23;;;10.62;50.38
54628;BME280;40525;55.926;21.066;2023-03-19T10:37:25;101702.29;;;10.59;50.31
54628;BME280;40525;55.926;21.066;2023-03-19T10:39:57;101702.94;;;10.54;50.35
54628;BME280;40525;55.926;21.066;2023-03-19T10:47:53;101705.81;;;10.46;51.11
54628;BME280;40525;55.926;21.066;2023-03-19T10:50:28;101703.70;;;10.46;51.01
54628;BME280;40525;55.926;21.066;2023-03-19T10:55:30;101697.77;;;10.45;50.70
54628;BME280;40525;55.926;21.066;2023-03-19T10:58:14;101697.71;;;10.47;50.80
54628;BME280;40525;55.926;21.066;2023-03-19T11:00:45;101699.30;;;10.52;51.14
54628;BME280;40525;55.926;21.066;2023-03-19T11:06:18;101697.23;;;10.69;50.58
54628;BME280;40525;55.926;21.066;2023-03-19T11:08:58;101696.51;;;10.75;49.65
54628;BME280;40525;55.926;21.066;2023-03-19T11:11:35;101697.17;;;10.77;49.93
54628;BME280;40525;55.926;21.066;2023-03-19T11:14:16;101690.29;;;11.06;50.63
54628;BME280;40525;55.926;21.066;2023-03-19T11:17:06;101693.36;;;11.30;49.21
54628;BME280;40525;55.926;21.066;2023-03-19T11:19:42;101693.33;;;11.37;48.15
54628;BME280;40525;55.926;21.066;2023-03-19T11:22:18;101695.14;;;11.41;48.16
54628;BME280;40525;55.926;21.066;2023-03-19T11:24:53;101697.10;;;11.50;48.50
54628;BME280;40525;55.926;21.066;2023-03-19T11:27:32;101699.40;;;11.60;48.06
54628;BME280;40525;55.926;21.066;2023-03-19T11:30:05;101694.45;;;11.55;47.06
54628;BME280;40525;55.926;21.066;2023-03-19T11:33:19;101686.49;;;11.57;47.52
54628;BME280;40525;55.926;21.066;2023-03-19T11:35:55;101682.66;;;11.76;47.54
54628;BME280;40525;55.926;21.066;2023-03-19T11:38:44;101681.13;;;11.79;46.20
54628;BME280;40525;55.926;21.066;2023-03-19T11:44:28;101674.06;;;11.96;47.22
54628;BME280;40525;55.926;21.066;2023-03-19T11:47:11;101675.63;;;12.25;47.72
54628;BME280;40525;55.926;21.066;2023-03-19T11:50:01;101674.05;;;12.48;46.16
54628;BME280;40525;55.926;21.066;2023-03-19T11:52:40;101672.60;;;12.54;45.79
54628;BME280;40525;55.926;21.066;2023-03-19T12:01:00;101663.70;;;12.88;45.98
54628;BME280;40525;55.926;21.066;2023-03-19T12:05:58;101664.41;;;12.96;44.32
54628;BME280;40525;55.926;21.066;2023-03-19T12:08:32;101667.44;;;12.78;44.13
54628;BME280;40525;55.926;21.066;2023-03-19T12:14:07;101658.96;;;12.69;44.33
54628;BME280;40525;55.926;21.066;2023-03-19T12:19:39;101656.79;;;12.57;44.69
54628;BME280;40525;55.926;21.066;2023-03-19T12:35:58;101666.05;;;12.26;45.85
54628;BME280;40525;55.926;21.066;2023-03-19T12:41:33;101661.86;;;12.06;45.91
54628;BME280;40525;55.926;21.066;2023-03-19T12:44:09;101663.56;;;11.83;45.67
54628;BME280;40525;55.926;21.066;2023-03-19T12:46:47;101660.80;;;11.66;46.04
54628;BME280;40525;55.926;21.066;2023-03-19T12:49:34;101661.13;;;11.61;46.30
54628;BME280;40525;55.926;21.066;2023-03-19T12:57:57;101652.77;;;12.29;46.61
54628;BME280;40525;55.926;21.066;2023-03-19T13:00:35;101657.67;;;12.53;46.14
54628;BME280;40525;55.926;21.066;2023-03-19T13:03:16;101657.98;;;12.54;45.27
54628;BME280;40525;55.926;21.066;2023-03-19T13:08:56;101654.90;;;12.69;45.51
54628;BME280;40525;55.926;21.066;2023-03-19T13:14:05;101651.24;;;12.86;44.80
54628;BME280;40525;55.926;21.066;2023-03-19T13:19:15;101655.38;;;12.97;44.25
54628;BME280;40525;55.926;21.066;2023-03-19T13:21:46;101652.55;;;12.93;44.17
54628;BME280;40525;55.926;21.066;2023-03-19T13:26:48;101649.41;;;12.56;43.89
54628;BME280;40525;55.926;21.066;2023-03-19T13:29:22;101649.11;;;12.45;44.68
54628;BME280;40525;55.926;21.066;2023-03-19T13:31:51;101646.73;;;12.38;44.73
54628;BME280;40525;55.926;21.066;2023-03-19T13:37:12;101645.44;;;12.12;45.25
54628;BME280;40525;55.926;21.066;2023-03-19T13:39:42;101648.69;;;11.85;44.98
54628;BME280;40525;55.926;21.066;2023-03-19T13:45:33;101652.11;;;11.37;46.14
54628;BME280;40525;55.926;21.066;2023-03-19T13:47:39;101654.58;;;11.16;46.09
54628;BME280;40525;55.926;21.066;2023-03-19T13:55:30;101657.11;;;10.92;47.22
54628;BME280;40525;55.926;21.066;2023-03-19T14:01:05;101653.86;;;10.55;47.92
54628;BME280;40525;55.926;21.066;2023-03-19T14:03:50;101653.17;;;10.49;48.38
54628;BME280;40525;55.926;21.066;2023-03-19T14:06:39;101652.85;;;10.48;48.46
54628;BME280;40525;55.926;21.066;2023-03-19T14:09:27;101648.59;;;10.49;48.70
54628;BME280;40525;55.926;21.066;2023-03-19T14:12:08;101646.56;;;10.47;48.80
54628;BME280;40525;55.926;21.066;2023-03-19T14:14:41;101643.77;;;10.46;48.88
54628;BME280;40525;55.926;21.066;2023-03-19T14:17:21;101641.41;;;10.48;48.77
54628;BME280;40525;55.926;21.066;2023-03-19T14:19:51;101645.81;;;10.48;49.00
54628;BME280;40525;55.926;21.066;2023-03-19T14:22:36;101643.23;;;10.40;48.93
54628;BME280;40525;55.926;21.066;2023-03-19T14:25:19;101638.35;;;10.33;49.06
54628;BME280;40525;55.926;21.066;2023-03-19T14:27:53;101638.17;;;10.26;49.15
54628;BME280;40525;55.926;21.066;2023-03-19T14:30:30;101634.47;;;10.21;49.43
54628;BME280;40525;55.926;21.066;2023-03-19T14:33:02;101631.27;;;10.22;49.70
54628;BME280;40525;55.926;21.066;2023-03-19T14:35:35;101632.48;;;10.23;49.81
54628;BME280;40525;55.926;21.066;2023-03-19T14:38:28;101632.80;;;10.23;49.73
54628;BME280;40525;55.926;21.066;2023-03-19T14:41:00;101628.86;;;10.14;49.57
54628;BME280;40525;55.926;21.066;2023-03-19T14:46:37;101630.09;;;10.08;50.02
54628;BME280;40525;55.926;21.066;2023-03-19T14:54:47;101618.36;;;10.06;50.24